Terminal Aerodrome Forecast
Issued by NWS

Home | Current Version | Previous Version | Text Only | Print | Product List | Glossary Off
Versions: 1 2 3 4 5 6 7 8 9 10 11 12 13 14 15 16 17 18 19 20

000
FTUS43 KGRB 292309 AAC
TAFMTW
TAF AMD
KMTW 292309Z 2923/3018 15007KT P6SM VCSH SCT035 BKN080
     FM300500 VRB03KT 5SM -SHRA BR BKN025 OVC035
     FM300700 36007KT 3SM RA BR OVC006
     FM301100 01012G20KT 6SM -SHRA SCT009 OVC020
     FM301600 02016G24KT P6SM BKN035=

USA.gov is the U.S. government's official web portal to all federal, state and local government web resources and services.